Time;durP1;ratioP1;P1;durP2;ratioP2;P2;SDS_P1;SDS_P2;PMS_P1;PMS_P2;Temp;Humidity;BMP_temperature;BMP_pressure;BME280_temperature;BME280_humidity;BME280_pressure;Samples;Min_cycle;Max_cycle;Signal;HPM_P1;HPM_P2
2022/09/08 00:00:33;;;;;;;5.15;1.90;;;;;;;;;;6180251;23;20017;-75
2022/09/08 00:03:05;;;;;;;3.60;1.73;;;;;;;;;;6180051;23;20081;-75
2022/09/08 00:05:34;;;;;;;3.08;1.67;;;;;;;;;;6179894;23;20063;-75
2022/09/08 00:08:09;;;;;;;6.38;1.88;;;;;;;;;;6155308;23;20024;-75
2022/09/08 00:10:37;;;;;;;2.80;1.30;;;;;;;;;;6181176;23;20100;-75
2022/09/08 00:13:07;;;;;;;1.98;1.60;;;;;;;;;;6178161;23;20652;-75
2022/09/08 00:15:41;;;;;;;2.90;1.60;;;;;;;;;;6180398;23;20021;-75
2022/09/08 00:18:23;;;;;;;2.42;1.70;;;;;;;;;;6180044;23;20099;-75
2022/09/08 00:20:57;;;;;;;4.03;1.55;;;;;;;;;;6179795;23;20027;-75
2022/09/08 00:23:25;;;;;;;3.22;1.73;;;;;;;;;;6179784;23;20025;-75
2022/09/08 00:25:52;;;;;;;2.08;1.58;;;;;;;;;;6178155;23;20369;-74
2022/09/08 00:28:26;;;;;;;2.05;1.48;;;;;;;;;;6178791;23;20025;-74
2022/09/08 00:30:56;;;;;;;2.22;1.60;;;;;;;;;;6179448;23;20459;-74
2022/09/08 00:33:24;;;;;;;2.78;1.90;;;;;;;;;;6179811;23;20025;-75
2022/09/08 00:35:58;;;;;;;2.00;1.50;;;;;;;;;;6179502;23;20080;-75
2022/09/08 00:38:26;;;;;;;4.53;1.50;;;;;;;;;;6179506;23;20021;-74
2022/09/08 00:40:53;;;;;;;1.50;1.40;;;;;;;;;;6179568;23;20474;-74
2022/09/08 00:43:41;;;;;;;3.78;1.55;;;;;;;;;;6179892;23;20099;-74
2022/09/08 00:46:12;;;;;;;4.07;1.80;;;;;;;;;;6179361;23;20025;-74
2022/09/08 00:48:49;;;;;;;3.17;1.65;;;;;;;;;;6179322;23;20028;-74
2022/09/08 00:51:17;;;;;;;2.03;1.40;;;;;;;;;;6180124;23;20028;-74
2022/09/08 00:53:46;;;;;;;3.67;1.67;;;;;;;;;;6180078;23;20021;-75
2022/09/08 00:56:21;;;;;;;3.25;1.75;;;;;;;;;;6179425;23;20100;-74
2022/09/08 00:58:49;;;;;;;1.85;1.50;;;;;;;;;;6180448;23;20025;-74
2022/09/08 01:01:16;;;;;;;1.67;1.27;;;;;;;;;;6181322;23;20023;-75
2022/09/08 01:03:51;;;;;;;1.65;1.35;;;;;;;;;;6180261;23;20021;-75
2022/09/08 01:06:18;;;;;;;;;;;;;;;;;;6179841;23;20101;-75
2022/09/08 01:14:43;;;;;;;2.95;1.30;;;;;;;;;;6180880;23;20346;-74
2022/09/08 01:17:23;;;;;;;3.88;1.38;;;;;;;;;;6179795;23;20036;-74
2022/09/08 01:19:57;;;;;;;3.92;1.40;;;;;;;;;;6176560;23;20025;-75
2022/09/08 01:22:49;;;;;;;1.83;0.95;;;;;;;;;;6179255;23;20029;-75
2022/09/08 01:25:53;;;;;;;2.25;1.20;;;;;;;;;;6177236;23;20027;-76
2022/09/08 01:28:46;;;;;;;4.93;1.13;;;;;;;;;;6030338;23;20499;-75
2022/09/08 01:31:14;;;;;;;3.40;0.93;;;;;;;;;;6178695;23;20025;-74
2022/09/08 01:33:48;;;;;;;2.85;1.25;;;;;;;;;;6178647;23;20028;-75
2022/09/08 01:36:16;;;;;;;1.63;1.08;;;;;;;;;;6179446;23;20579;-74
2022/09/08 01:38:43;;;;;;;2.38;1.20;;;;;;;;;;6179508;23;20017;-74
2022/09/08 01:41:16;;;;;;;2.05;0.90;;;;;;;;;;6177775;23;20517;-75
2022/09/08 01:43:44;;;;;;;4.13;1.10;;;;;;;;;;6179435;23;20025;-75
2022/09/08 01:46:11;;;;;;;2.58;0.98;;;;;;;;;;6179435;23;20803;-74
2022/09/08 01:48:45;;;;;;;2.13;0.93;;;;;;;;;;6177283;23;20024;-75
2022/09/08 01:51:12;;;;;;;3.28;1.00;;;;;;;;;;6178555;23;20108;-74
2022/09/08 01:53:39;;;;;;;2.38;1.10;;;;;;;;;;6179538;23;20025;-74
2022/09/08 01:56:14;;;;;;;1.38;0.98;;;;;;;;;;6178972;23;20024;-75
2022/09/08 01:58:41;;;;;;;1.23;0.95;;;;;;;;;;6178401;23;20059;-75
2022/09/08 02:01:08;;;;;;;2.65;1.15;;;;;;;;;;6178846;23;20172;-74
2022/09/08 02:03:43;;;;;;;3.72;0.80;;;;;;;;;;6178229;23;20719;-75
2022/09/08 02:06:10;;;;;;;2.53;1.00;;;;;;;;;;6179100;23;20077;-75
2022/09/08 02:08:37;;;;;;;0.88;0.80;;;;;;;;;;6178871;23;20411;-74
2022/09/08 02:11:11;;;;;;;2.80;0.90;;;;;;;;;;6178761;23;20029;-75
2022/09/08 02:13:39;;;;;;;2.50;1.00;;;;;;;;;;6180521;23;20031;-75
2022/09/08 02:16:09;;;;;;;2.25;0.90;;;;;;;;;;6152436;23;20035;-75
2022/09/08 02:18:50;;;;;;;3.63;1.25;;;;;;;;;;6179230;23;20021;-75
2022/09/08 02:21:25;;;;;;;1.83;0.85;;;;;;;;;;6178773;23;20021;-75
2022/09/08 02:23:59;;;;;;;1.60;0.90;;;;;;;;;;6178871;23;20100;-75
2022/09/08 02:26:28;;;;;;;3.53;0.95;;;;;;;;;;6178784;23;20060;-74
2022/09/08 02:28:55;;;;;;;6.32;1.00;;;;;;;;;;6179804;23;20022;-75
2022/09/08 02:31:30;;;;;;;0.85;0.60;;;;;;;;;;6177501;23;20025;-75
2022/09/08 02:33:57;;;;;;;1.98;0.93;;;;;;;;;;6179532;23;20095;-74
2022/09/08 02:36:24;;;;;;;2.75;1.30;;;;;;;;;;6180543;23;20029;-75
2022/09/08 02:38:59;;;;;;;1.55;0.90;;;;;;;;;;6180521;23;20422;-75
2022/09/08 02:41:27;;;;;;;1.35;0.90;;;;;;;;;;6180201;23;20029;-75
2022/09/08 02:44:07;;;;;;;0.80;0.70;;;;;;;;;;6180791;23;20027;-74
2022/09/08 02:46:42;;;;;;;0.80;0.73;;;;;;;;;;6180889;23;20040;-74
2022/09/08 02:49:10;;;;;;;3.05;0.80;;;;;;;;;;6180651;23;20029;-75
2022/09/08 02:51:37;;;;;;;;;;;;;;;;;;6181266;23;20025;-74
2022/09/08 02:54:11;;;;;;;2.13;0.85;;;;;;;;;;6179379;23;19920;-75
2022/09/08 02:56:38;;;;;;;3.00;0.75;;;;;;;;;;6180622;23;20017;-74
2022/09/08 02:59:05;;;;;;;2.45;0.77;;;;;;;;;;6180827;23;20104;-74
2022/09/08 03:01:39;;;;;;;1.08;0.75;;;;;;;;;;6180389;23;20035;-75
2022/09/08 03:04:06;;;;;;;;;;;;;;;;;;6180412;23;20434;-74
2022/09/08 03:06:33;;;;;;;2.75;1.30;;;;;;;;;;6178966;23;20167;-75
2022/09/08 03:09:08;;;;;;;0.75;0.70;;;;;;;;;;6179940;23;20404;-75
2022/09/08 03:11:35;;;;;;;3.40;0.90;;;;;;;;;;6179941;23;20035;-75
2022/09/08 03:14:03;;;;;;;2.05;1.00;;;;;;;;;;6179045;23;20024;-74
2022/09/08 03:16:39;;;;;;;1.30;1.00;;;;;;;;;;6180335;23;20021;-75
2022/09/08 03:19:18;;;;;;;1.23;0.70;;;;;;;;;;6180611;23;20354;-74
2022/09/08 03:21:53;;;;;;;3.15;0.80;;;;;;;;;;6178771;23;20021;-75
2022/09/08 03:24:20;;;;;;;2.15;1.00;;;;;;;;;;6180456;23;20048;-74
2022/09/08 03:26:47;;;;;;;1.35;0.82;;;;;;;;;;6181277;23;20298;-74
2022/09/08 03:29:21;;;;;;;0.68;0.60;;;;;;;;;;6180052;23;20652;-74
2022/09/08 03:31:49;;;;;;;1.40;0.90;;;;;;;;;;6179323;23;20427;-74
2022/09/08 03:34:16;;;;;;;3.15;0.75;;;;;;;;;;6180936;23;20045;-75
2022/09/08 03:36:49;;;;;;;3.08;0.63;;;;;;;;;;6179433;23;20540;-74
2022/09/08 03:39:17;;;;;;;1.20;1.00;;;;;;;;;;6180085;23;20751;-74
2022/09/08 03:41:44;;;;;;;1.63;0.77;;;;;;;;;;6181448;23;20031;-74
2022/09/08 03:44:18;;;;;;;3.13;0.77;;;;;;;;;;6180346;23;20346;-74
2022/09/08 03:46:45;;;;;;;1.17;0.80;;;;;;;;;;6179761;23;20075;-75
2022/09/08 03:49:12;;;;;;;;;;;;;;;;;;6181952;23;20017;-75
2022/09/08 03:51:46;;;;;;;4.45;1.38;;;;;;;;;;6180807;23;19923;-75
2022/09/08 03:57:06;;;;;;;3.30;1.15;;;;;;;;;;6180757;23;20021;-73
2022/09/08 03:59:34;;;;;;;3.95;0.88;;;;;;;;;;6179953;23;20096;-75
2022/09/08 04:02:01;;;;;;;2.53;0.95;;;;;;;;;;6179476;23;20027;-74
2022/09/08 04:04:35;;;;;;;4.32;0.88;;;;;;;;;;6180619;23;20025;-74
2022/09/08 04:07:02;;;;;;;1.10;0.82;;;;;;;;;;6180338;23;20045;-74
2022/09/08 04:09:29;;;;;;;1.27;0.90;;;;;;;;;;6180317;23;20067;-75
2022/09/08 04:12:05;;;;;;;3.45;0.90;;;;;;;;;;6180093;23;20028;-74
2022/09/08 04:14:33;;;;;;;2.78;0.88;;;;;;;;;;6180069;23;20358;-74
2022/09/08 04:17:00;;;;;;;3.08;0.82;;;;;;;;;;6179730;23;20024;-74
2022/09/08 04:19:41;;;;;;;1.77;1.17;;;;;;;;;;6179900;23;20109;-74
2022/09/08 04:22:13;;;;;;;3.15;0.90;;;;;;;;;;6178774;23;20096;-75
2022/09/08 04:24:48;;;;;;;0.80;0.75;;;;;;;;;;6179413;23;20100;-74
2022/09/08 04:27:22;;;;;;;1.98;1.00;;;;;;;;;;6179868;23;20075;-75
2022/09/08 04:29:56;;;;;;;1.70;0.98;;;;;;;;;;6179867;23;20025;-75
2022/09/08 04:32:24;;;;;;;1.48;1.00;;;;;;;;;;6178909;23;20035;-75
2022/09/08 04:34:51;;;;;;;1.00;0.90;;;;;;;;;;6178513;23;20387;-74
2022/09/08 04:37:26;;;;;;;1.23;0.77;;;;;;;;;;6154938;23;20713;-74
2022/09/08 04:39:53;;;;;;;4.25;0.98;;;;;;;;;;6180196;23;20099;-74
2022/09/08 04:42:22;;;;;;;1.20;0.90;;;;;;;;;;6178978;23;20025;-75
2022/09/08 04:44:57;;;;;;;0.70;0.60;;;;;;;;;;6179803;23;20021;-74
2022/09/08 04:47:24;;;;;;;1.13;0.75;;;;;;;;;;6180165;23;20467;-75
2022/09/08 04:49:53;;;;;;;0.73;0.60;;;;;;;;;;6154079;23;20017;-75
2022/09/08 04:52:27;;;;;;;1.63;0.82;;;;;;;;;;6180223;23;20433;-75
2022/09/08 04:54:57;;;;;;;1.60;0.70;;;;;;;;;;6179237;23;20024;-75
2022/09/08 04:57:24;;;;;;;2.50;0.88;;;;;;;;;;6177677;23;20443;-74
2022/09/08 04:59:58;;;;;;;2.70;0.85;;;;;;;;;;6180013;23;20025;-75
2022/09/08 05:02:28;;;;;;;1.13;0.85;;;;;;;;;;6179485;23;20029;-75
2022/09/08 05:04:55;;;;;;;3.28;0.88;;;;;;;;;;6180401;23;20028;-74
2022/09/08 05:07:29;;;;;;;0.55;0.55;;;;;;;;;;6178716;23;20035;-75
2022/09/08 05:09:56;;;;;;;0.73;0.73;;;;;;;;;;6180282;23;20096;-75
2022/09/08 05:12:23;;;;;;;0.73;0.70;;;;;;;;;;6179192;23;20029;-75
2022/09/08 05:14:58;;;;;;;0.60;0.60;;;;;;;;;;6179602;23;20459;-75
2022/09/08 05:17:26;;;;;;;1.48;0.77;;;;;;;;;;6178714;23;20099;-74
2022/09/08 05:19:53;;;;;;;0.73;0.60;;;;;;;;;;6179961;23;20018;-75
2022/09/08 05:22:33;;;;;;;1.95;0.90;;;;;;;;;;6179539;23;20064;-75
2022/09/08 05:25:01;;;;;;;1.95;0.60;;;;;;;;;;6154383;23;20471;-74
2022/09/08 05:27:35;;;;;;;1.27;0.60;;;;;;;;;;6180543;23;20051;-75
2022/09/08 05:30:03;;;;;;;0.80;0.60;;;;;;;;;;6180361;23;20358;-74
2022/09/08 05:32:30;;;;;;;0.65;0.63;;;;;;;;;;6179444;23;20071;-75
2022/09/08 05:35:07;;;;;;;4.45;0.70;;;;;;;;;;6180391;23;20500;-74
2022/09/08 05:37:35;;;;;;;1.80;0.60;;;;;;;;;;6178746;23;20091;-75
2022/09/08 05:40:02;;;;;;;1.30;0.45;;;;;;;;;;6179675;23;20028;-75
2022/09/08 05:42:37;;;;;;;2.50;0.63;;;;;;;;;;6179840;23;20024;-75
2022/09/08 05:45:04;;;;;;;1.80;0.63;;;;;;;;;;6178941;23;20545;-75
2022/09/08 05:47:31;;;;;;;0.82;0.82;;;;;;;;;;6180047;23;20112;-75
2022/09/08 05:50:05;;;;;;;1.95;0.80;;;;;;;;;;6180690;23;20051;-75
2022/09/08 05:52:32;;;;;;;1.80;0.88;;;;;;;;;;6179094;23;20029;-74
2022/09/08 05:54:59;;;;;;;1.90;0.70;;;;;;;;;;6179126;23;20092;-75
2022/09/08 05:57:35;;;;;;;2.10;0.60;;;;;;;;;;6179947;23;20094;-74
2022/09/08 06:00:06;;;;;;;4.78;0.82;;;;;;;;;;6180817;23;20092;-75
2022/09/08 06:02:41;;;;;;;;;;;;;;;;;;6181160;23;20063;-75
2022/09/08 06:05:09;;;;;;;3.75;0.73;;;;;;;;;;6179863;23;19923;-75
2022/09/08 06:07:36;;;;;;;2.63;0.60;;;;;;;;;;6154375;23;20029;-75
2022/09/08 06:10:10;;;;;;;4.20;0.80;;;;;;;;;;6181286;23;20063;-75
2022/09/08 06:12:37;;;;;;;1.83;0.73;;;;;;;;;;6181882;23;20024;-75
2022/09/08 06:15:04;;;;;;;0.70;0.70;;;;;;;;;;6181711;23;20044;-75
2022/09/08 06:18:01;;;;;;;1.10;0.68;;;;;;;;;;6180944;23;20080;-75
2022/09/08 06:20:43;;;;;;;3.63;1.10;;;;;;;;;;6180861;23;20293;-75
2022/09/08 06:23:17;;;;;;;1.95;0.57;;;;;;;;;;6181280;23;20040;-75
2022/09/08 06:25:45;;;;;;;5.25;0.85;;;;;;;;;;6181668;23;20032;-75
2022/09/08 06:28:24;;;;;;;1.70;0.60;;;;;;;;;;6181698;23;20361;-75
2022/09/08 06:30:58;;;;;;;2.33;0.70;;;;;;;;;;6181017;23;20100;-75
2022/09/08 06:33:31;;;;;;;3.55;0.60;;;;;;;;;;6180381;23;20060;-75
2022/09/08 06:36:12;;;;;;;0.50;0.50;;;;;;;;;;6180929;23;20047;-75
2022/09/08 06:38:43;;;;;;;0.80;0.80;;;;;;;;;;6182260;23;20092;-75
2022/09/08 06:41:27;;;;;;;1.55;0.70;;;;;;;;;;6181589;23;20356;-75
2022/09/08 06:44:05;;;;;;;1.17;0.50;;;;;;;;;;6181233;23;20099;-75
2022/09/08 06:46:40;;;;;;;4.45;0.55;;;;;;;;;;6180862;23;20072;-74
2022/09/08 06:49:09;;;;;;;1.48;0.77;;;;;;;;;;6181363;23;20494;-74
2022/09/08 06:51:36;;;;;;;1.30;0.70;;;;;;;;;;6181338;23;20476;-75
2022/09/08 06:54:10;;;;;;;0.80;0.73;;;;;;;;;;6181868;23;20021;-75
2022/09/08 06:56:40;;;;;;;1.08;0.85;;;;;;;;;;6182249;23;20056;-75
2022/09/08 06:59:27;;;;;;;2.47;0.65;;;;;;;;;;6181233;23;20035;-74
2022/09/08 07:02:12;;;;;;;3.38;0.90;;;;;;;;;;6182011;23;20358;-75
2022/09/08 07:04:48;;;;;;;5.50;0.88;;;;;;;;;;6182648;23;20428;-75
2022/09/08 07:07:26;;;;;;;2.83;0.70;;;;;;;;;;6182331;23;20060;-75
2022/09/08 07:10:10;;;;;;;1.02;0.75;;;;;;;;;;6182657;23;20021;-75
2022/09/08 07:13:06;;;;;;;3.88;0.50;;;;;;;;;;6181370;23;20031;-75
2022/09/08 07:15:43;;;;;;;1.35;0.80;;;;;;;;;;6181774;23;20274;-75
2022/09/08 07:18:55;;;;;;;1.38;0.80;;;;;;;;;;6180743;23;20056;-75
2022/09/08 07:21:29;;;;;;;0.75;0.60;;;;;;;;;;6107334;23;20108;-75
2022/09/08 11:24:11;;;;;;;1.20;0.40;;;;;;;;;;5654047;22;12399587;-74
2022/09/08 11:27:09;;;;;;;0.82;0.40;;;;;;;;;;6180227;23;20055;-74
2022/09/08 11:29:37;;;;;;;1.02;0.30;;;;;;;;;;6180523;23;20100;-74
2022/09/08 11:32:20;;;;;;;0.65;0.35;;;;;;;;;;6179174;23;20032;-73
2022/09/08 11:35:04;;;;;;;0.38;0.30;;;;;;;;;;6180090;23;20095;-74
2022/09/08 11:37:57;;;;;;;0.63;0.43;;;;;;;;;;6181063;23;20052;-73
2022/09/08 11:40:43;;;;;;;1.30;0.40;;;;;;;;;;6177010;23;20748;-73
2022/09/08 11:43:36;;;;;;;2.78;0.43;;;;;;;;;;6179877;23;20398;-73
2022/09/08 11:46:06;;;;;;;0.30;0.30;;;;;;;;;;6179818;23;20703;-74
2022/09/08 11:48:44;;;;;;;0.50;0.25;;;;;;;;;;6178976;23;20025;-74
2022/09/08 11:51:33;;;;;;;0.85;0.32;;;;;;;;;;6179994;23;20040;-73
2022/09/08 11:54:41;;;;;;;0.68;0.50;;;;;;;;;;6178299;23;20470;-74
2022/09/08 11:57:27;;;;;;;0.98;0.52;;;;;;;;;;6179673;23;20029;-74
2022/09/08 12:00:11;;;;;;;2.00;0.93;;;;;;;;;;6179665;23;20481;-74
2022/09/08 12:02:56;;;;;;;2.53;0.40;;;;;;;;;;6178535;23;20103;-74
2022/09/08 12:05:49;;;;;;;2.35;0.40;;;;;;;;;;6177444;23;20031;-74
2022/09/08 12:08:36;;;;;;;5.18;0.73;;;;;;;;;;6179046;23;20028;-74
2022/09/08 12:11:14;;;;;;;2.58;0.43;;;;;;;;;;6179790;23;20100;-74
2022/09/08 12:13:41;;;;;;;1.15;0.50;;;;;;;;;;6181188;23;20331;-74
2022/09/08 12:16:08;;;;;;;2.67;0.60;;;;;;;;;;6180754;23;20379;-74
2022/09/08 12:18:52;;;;;;;2.88;0.82;;;;;;;;;;6179834;23;20061;-72
2022/09/08 12:21:30;;;;;;;1.75;0.47;;;;;;;;;;6179846;23;20017;-72
2022/09/08 12:24:33;;;;;;;0.35;0.35;;;;;;;;;;6124588;23;20499;-75
2022/09/08 12:27:41;;;;;;;2.42;0.50;;;;;;;;;;6149865;23;20032;-76
2022/09/08 12:30:34;;;;;;;1.15;0.35;;;;;;;;;;6095599;23;20027;-75
2022/09/08 12:33:20;;;;;;;2.40;0.55;;;;;;;;;;6122934;23;20048;-73
2022/09/08 12:35:55;;;;;;;1.77;0.40;;;;;;;;;;6148698;23;20352;-74
2022/09/08 12:38:35;;;;;;;0.52;0.40;;;;;;;;;;6149500;23;20057;-74
2022/09/08 12:41:15;;;;;;;1.73;0.50;;;;;;;;;;6150140;23;20026;-74
2022/09/08 12:43:43;;;;;;;1.30;0.40;;;;;;;;;;6147911;23;20026;-73
2022/09/08 12:46:43;;;;;;;6.13;0.38;;;;;;;;;;6149130;23;20024;-73
2022/09/08 12:49:14;;;;;;;0.63;0.30;;;;;;;;;;6149340;23;20026;-73
2022/09/08 12:51:53;;;;;;;0.47;0.35;;;;;;;;;;6149664;23;20487;-73
2022/09/08 12:54:24;;;;;;;2.70;0.55;;;;;;;;;;6149470;23;20026;-73
2022/09/08 12:56:58;;;;;;;;;;;;;;;;;;6150090;23;20018;-74
2022/09/08 12:59:44;;;;;;;4.07;0.73;;;;;;;;;;6149314;23;19916;-74
2022/09/08 13:02:21;;;;;;;1.65;0.43;;;;;;;;;;6149126;23;20305;-73
2022/09/08 13:04:52;;;;;;;1.25;0.40;;;;;;;;;;6123935;23;20045;-73
2022/09/08 13:07:49;;;;;;;1.20;0.60;;;;;;;;;;6148559;23;20458;-73
2022/09/08 13:10:22;;;;;;;1.38;0.57;;;;;;;;;;6149784;23;20021;-73
2022/09/08 13:13:15;;;;;;;2.90;0.60;;;;;;;;;;6151468;23;20053;-73
2022/09/08 13:15:46;;;;;;;2.83;0.47;;;;;;;;;;6150247;23;20109;-74
2022/09/08 13:18:20;;;;;;;;;;;;;;;;;;6151322;23;20026;-74
2022/09/08 13:21:04;;;;;;;3.95;0.52;;;;;;;;;;6151365;23;19956;-74
2022/09/08 13:23:53;;;;;;;1.45;0.45;;;;;;;;;;6167330;23;20339;-74
2022/09/08 13:26:23;;;;;;;1.67;0.65;;;;;;;;;;6181894;23;20023;-74
2022/09/08 13:29:00;;;;;;;0.90;0.40;;;;;;;;;;6181551;23;20033;-74
2022/09/08 13:31:52;;;;;;;0.82;0.40;;;;;;;;;;6180651;23;20358;-73
2022/09/08 13:34:37;;;;;;;6.55;0.80;;;;;;;;;;6181226;23;20323;-74
2022/09/08 13:37:04;;;;;;;;;;;;;;;;;;6181818;23;20104;-74
2022/09/08 13:40:08;;;;;;;0.80;0.52;;;;;;;;;;6180991;23;19995;-73
2022/09/08 13:42:35;;;;;;;0.80;0.50;;;;;;;;;;6156629;23;20470;-74
2022/09/08 13:45:21;;;;;;;1.75;0.32;;;;;;;;;;6180544;23;20096;-74
2022/09/08 13:47:48;;;;;;;0.93;0.50;;;;;;;;;;6180468;23;20418;-74
2022/09/08 13:50:31;;;;;;;1.73;0.38;;;;;;;;;;6180466;23;20027;-73
2022/09/08 13:52:58;;;;;;;1.00;0.50;;;;;;;;;;6180282;23;20028;-74
2022/09/08 13:55:41;;;;;;;0.70;0.30;;;;;;;;;;6181226;23;20029;-73
2022/09/08 13:58:27;;;;;;;0.55;0.40;;;;;;;;;;6180457;23;20095;-74
2022/09/08 14:01:08;;;;;;;4.07;0.65;;;;;;;;;;6180513;23;20463;-73
2022/09/08 14:03:39;;;;;;;0.50;0.30;;;;;;;;;;6181094;23;20025;-74
2022/09/08 14:06:14;;;;;;;1.80;0.50;;;;;;;;;;6180815;23;20025;-74
2022/09/08 14:09:02;;;;;;;0.60;0.40;;;;;;;;;;6180761;23;20052;-74
2022/09/08 14:11:45;;;;;;;1.30;0.30;;;;;;;;;;6181040;23;20027;-73
2022/09/08 14:14:15;;;;;;;0.55;0.50;;;;;;;;;;6178751;23;20051;-74
2022/09/08 14:16:51;;;;;;;1.58;0.40;;;;;;;;;;6178624;23;20035;-74
2022/09/08 14:19:44;;;;;;;1.42;0.50;;;;;;;;;;6180869;23;20028;-74
2022/09/08 14:22:48;;;;;;;2.38;0.40;;;;;;;;;;6180020;23;20031;-73
2022/09/08 14:25:24;;;;;;;0.50;0.30;;;;;;;;;;6180118;23;20023;-74
2022/09/08 14:28:18;;;;;;;2.78;0.63;;;;;;;;;;6180885;23;20407;-74
2022/09/08 14:30:48;;;;;;;0.50;0.30;;;;;;;;;;6179420;23;20554;-74
2022/09/08 14:33:28;;;;;;;0.60;0.35;;;;;;;;;;6180907;23;20100;-73
2022/09/08 14:36:11;;;;;;;9.65;0.50;;;;;;;;;;6180471;23;20027;-74
2022/09/08 14:38:51;;;;;;;1.23;0.40;;;;;;;;;;6180806;23;20121;-74
2022/09/08 14:41:21;;;;;;;1.23;0.45;;;;;;;;;;6180899;23;20056;-74
2022/09/08 14:44:17;;;;;;;5.10;0.83;;;;;;;;;;6181308;23;20040;-73
2022/09/08 14:46:44;;;;;;;4.18;0.70;;;;;;;;;;6181383;23;20032;-74
2022/09/08 14:49:27;;;;;;;1.80;0.50;;;;;;;;;;6179345;23;20103;-73
2022/09/08 14:52:19;;;;;;;2.20;0.30;;;;;;;;;;6153161;23;20398;-73
2022/09/08 14:55:03;;;;;;;3.65;0.40;;;;;;;;;;6170602;23;20025;-74
2022/09/08 14:57:47;;;;;;;2.03;0.35;;;;;;;;;;6179414;23;20017;-74
2022/09/08 15:00:41;;;;;;;0.77;0.50;;;;;;;;;;6180020;23;20091;-73
2022/09/08 15:03:18;;;;;;;2.75;0.73;;;;;;;;;;6179845;23;20025;-73
2022/09/08 15:05:53;;;;;;;2.80;0.68;;;;;;;;;;6179401;23;20060;-74
2022/09/08 15:08:23;;;;;;;0.85;0.65;;;;;;;;;;6154770;23;20342;-74
2022/09/08 15:10:57;;;;;;;3.53;0.60;;;;;;;;;;6180465;23;20021;-73
2022/09/08 15:13:34;;;;;;;0.98;0.50;;;;;;;;;;6180753;23;20025;-74
2022/09/08 15:16:20;;;;;;;1.23;0.75;;;;;;;;;;6180136;23;20046;-74
2022/09/08 15:18:59;;;;;;;1.02;0.60;;;;;;;;;;6181040;23;20204;-74
2022/09/08 15:21:27;;;;;;;0.93;0.40;;;;;;;;;;6153925;23;20489;-74
2022/09/08 15:24:33;;;;;;;1.20;0.43;;;;;;;;;;6178861;23;20099;-73
2022/09/08 15:27:09;;;;;;;10.32;0.98;;;;;;;;;;6180063;23;20021;-74
2022/09/08 15:29:59;;;;;;;2.00;0.40;;;;;;;;;;6154537;23;20025;-74
2022/09/08 15:32:44;;;;;;;1.17;0.50;;;;;;;;;;6179095;23;20035;-74
2022/09/08 15:35:30;;;;;;;3.63;0.30;;;;;;;;;;6179502;23;20124;-74
2022/09/08 15:38:06;;;;;;;0.63;0.40;;;;;;;;;;6179203;23;20099;-74
2022/09/08 15:40:43;;;;;;;0.93;0.43;;;;;;;;;;6152909;23;20025;-74
2022/09/08 15:43:10;;;;;;;0.60;0.32;;;;;;;;;;6178268;23;20104;-74
2022/09/08 15:45:58;;;;;;;2.53;0.40;;;;;;;;;;6178767;23;20474;-74
2022/09/08 15:48:51;;;;;;;0.73;0.40;;;;;;;;;;6160720;23;20041;-73
2022/09/08 15:51:24;;;;;;;0.88;0.50;;;;;;;;;;6179545;23;20510;-74
2022/09/08 15:54:04;;;;;;;0.50;0.38;;;;;;;;;;6179663;23;20091;-73
2022/09/08 15:56:50;;;;;;;2.00;0.50;;;;;;;;;;6179963;23;20027;-74
2022/09/08 15:59:25;;;;;;;2.13;0.50;;;;;;;;;;6177268;23;20036;-74
2022/09/08 16:01:54;;;;;;;2.17;0.60;;;;;;;;;;6180926;23;20212;-73
2022/09/08 16:04:32;;;;;;;1.08;0.70;;;;;;;;;;6178931;23;20087;-74
2022/09/08 16:07:09;;;;;;;1.40;0.60;;;;;;;;;;6177935;23;20021;-74
2022/09/08 16:09:56;;;;;;;0.98;0.45;;;;;;;;;;6176645;23;20439;-74
2022/09/08 16:12:34;;;;;;;3.22;0.50;;;;;;;;;;6178936;23;20031;-75
2022/09/08 16:15:07;;;;;;;1.90;0.60;;;;;;;;;;6176485;23;20308;-74
2022/09/08 16:18:17;;;;;;;1.50;0.35;;;;;;;;;;6178324;23;20035;-74
2022/09/08 16:21:04;;;;;;;2.50;1.00;;;;;;;;;;6028071;23;20023;-74
2022/09/08 16:23:58;;;;;;;1.45;0.60;;;;;;;;;;6163647;23;20032;-74
2022/09/08 16:26:43;;;;;;;2.95;0.60;;;;;;;;;;6177184;23;20025;-74
2022/09/08 16:29:41;;;;;;;0.85;0.52;;;;;;;;;;6178981;23;20101;-74
2022/09/08 16:32:13;;;;;;;0.75;0.47;;;;;;;;;;6180061;23;20027;-74
2022/09/08 16:34:46;;;;;;;;;;;;;;;;;;6178398;23;20025;-74
2022/09/08 16:37:19;;;;;;;0.77;0.55;;;;;;;;;;6178905;23;19916;-75
2022/09/08 16:40:05;;;;;;;2.75;0.70;;;;;;;;;;6177792;23;20017;-74
2022/09/08 16:42:41;;;;;;;2.72;0.60;;;;;;;;;;6180011;23;20028;-74
2022/09/08 16:45:15;;;;;;;3.13;0.57;;;;;;;;;;6181286;23;20024;-74
2022/09/08 16:47:50;;;;;;;1.25;0.30;;;;;;;;;;6178056;23;20017;-74
2022/09/08 16:50:26;;;;;;;3.88;0.60;;;;;;;;;;6178054;23;20051;-74
2022/09/08 16:53:11;;;;;;;1.92;0.60;;;;;;;;;;6178721;23;20021;-74
2022/09/08 16:55:48;;;;;;;2.20;0.45;;;;;;;;;;6175997;23;20574;-74
2022/09/08 16:58:16;;;;;;;0.90;0.50;;;;;;;;;;6176799;23;20358;-74
2022/09/08 17:00:54;;;;;;;0.90;0.45;;;;;;;;;;6179419;23;20395;-74
2022/09/08 17:03:37;;;;;;;0.77;0.57;;;;;;;;;;6178023;23;20029;-74
2022/09/08 17:06:18;;;;;;;1.95;0.40;;;;;;;;;;6178401;23;20129;-75
2022/09/08 17:08:57;;;;;;;0.30;0.30;;;;;;;;;;6178229;23;20722;-74
2022/09/08 17:11:35;;;;;;;1.05;0.57;;;;;;;;;;6177550;23;20028;-74
2022/09/08 17:14:10;;;;;;;0.98;0.60;;;;;;;;;;6177967;23;20021;-74
2022/09/08 17:16:37;;;;;;;;;;;;;;;;;;6178309;23;20021;-74
2022/09/08 17:19:04;;;;;;;3.40;0.85;;;;;;;;;;6178779;23;19947;-74
2022/09/08 17:21:38;;;;;;;1.40;0.70;;;;;;;;;;6176898;23;20073;-74
2022/09/08 17:24:22;;;;;;;3.60;0.60;;;;;;;;;;6177865;23;20357;-74
2022/09/08 17:27:12;;;;;;;1.05;0.70;;;;;;;;;;6179002;23;20021;-74
2022/09/08 17:29:50;;;;;;;1.00;0.60;;;;;;;;;;6179191;23;20025;-74
2022/09/08 17:32:48;;;;;;;2.85;0.70;;;;;;;;;;6178707;23;20033;-74
2022/09/08 17:35:15;;;;;;;1.08;0.70;;;;;;;;;;6178302;23;20097;-74
2022/09/08 17:38:01;;;;;;;2.08;0.70;;;;;;;;;;6178671;23;20096;-74
2022/09/08 17:40:41;;;;;;;0.57;0.30;;;;;;;;;;6177222;23;20481;-75
2022/09/08 17:43:20;;;;;;;4.18;0.50;;;;;;;;;;6178135;23;20025;-74
2022/09/08 17:45:52;;;;;;;1.83;0.45;;;;;;;;;;6152554;23;20381;-74
2022/09/08 17:48:38;;;;;;;0.57;0.50;;;;;;;;;;6176984;23;20067;-75
2022/09/08 17:51:05;;;;;;;0.68;0.68;;;;;;;;;;6151015;23;20478;-74
2022/09/08 17:53:42;;;;;;;0.45;0.40;;;;;;;;;;6177759;23;20060;-74
2022/09/08 17:56:20;;;;;;;4.50;0.45;;;;;;;;;;6177178;23;20105;-74
2022/09/08 17:59:09;;;;;;;0.47;0.47;;;;;;;;;;6177301;23;20025;-74
2022/09/08 18:01:37;;;;;;;2.72;0.57;;;;;;;;;;6177166;23;20419;-75
2022/09/08 18:04:11;;;;;;;1.10;0.40;;;;;;;;;;6177271;23;20024;-74
2022/09/08 18:06:41;;;;;;;0.50;0.40;;;;;;;;;;6177630;23;20100;-74
2022/09/08 18:09:31;;;;;;;2.40;0.50;;;;;;;;;;6176977;23;20516;-74
2022/09/08 18:12:23;;;;;;;2.50;0.57;;;;;;;;;;6167003;23;20464;-74
2022/09/08 18:14:56;;;;;;;1.95;0.40;;;;;;;;;;6176995;23;20099;-77
2022/09/08 18:17:37;;;;;;;0.40;0.40;;;;;;;;;;6177841;23;20100;-77
2022/09/08 18:20:13;;;;;;;1.90;0.50;;;;;;;;;;6176424;23;20449;-76
2022/09/08 18:23:15;;;;;;;0.82;0.65;;;;;;;;;;6132359;23;20647;-77
2022/09/08 18:25:58;;;;;;;0.32;0.32;;;;;;;;;;6151873;23;20411;-76
2022/09/08 18:28:42;;;;;;;0.50;0.50;;;;;;;;;;6177005;23;20025;-77
2022/09/08 18:31:24;;;;;;;2.90;0.55;;;;;;;;;;6176925;23;20100;-74
2022/09/08 18:34:13;;;;;;;1.20;0.55;;;;;;;;;;6177364;23;20438;-77
2022/09/08 18:37:02;;;;;;;2.67;0.50;;;;;;;;;;6177406;23;20359;-77
2022/09/08 18:39:40;;;;;;;2.00;0.50;;;;;;;;;;6177461;23;20028;-77
2022/09/08 18:42:16;;;;;;;1.17;0.80;;;;;;;;;;6175897;23;20036;-76
2022/09/08 18:45:03;;;;;;;0.52;0.47;;;;;;;;;;6177596;23;20021;-77
2022/09/08 18:47:36;;;;;;;1.27;0.68;;;;;;;;;;6150678;23;20096;-77
2022/09/08 18:50:16;;;;;;;3.15;0.80;;;;;;;;;;6176516;23;20335;-77
2022/09/08 18:52:52;;;;;;;3.50;0.88;;;;;;;;;;6150402;23;20025;-77
2022/09/08 18:55:37;;;;;;;2.22;0.70;;;;;;;;;;6176037;23;20028;-77
2022/09/08 18:58:07;;;;;;;3.28;0.80;;;;;;;;;;6175781;23;20123;-76
2022/09/08 19:00:51;;;;;;;0.65;0.60;;;;;;;;;;6177609;23;20408;-76
2022/09/08 19:03:26;;;;;;;3.00;1.13;;;;;;;;;;6176877;23;20021;-78
2022/09/08 19:06:14;;;;;;;1.15;0.90;;;;;;;;;;6177384;23;20478;-76
2022/09/08 19:08:48;;;;;;;2.25;0.60;;;;;;;;;;6176882;23;20021;-77
2022/09/08 19:11:30;;;;;;;3.03;1.00;;;;;;;;;;6176352;23;20108;-77
2022/09/08 19:14:18;;;;;;;0.90;0.60;;;;;;;;;;6177333;23;20021;-77
2022/09/08 19:17:10;;;;;;;1.35;0.68;;;;;;;;;;6153278;23;20482;-77
2022/09/08 19:19:38;;;;;;;0.73;0.73;;;;;;;;;;6177152;23;20021;-77
2022/09/08 19:22:21;;;;;;;1.25;1.08;;;;;;;;;;6176880;23;20021;-77
2022/09/08 19:24:56;;;;;;;1.85;0.85;;;;;;;;;;6174663;23;20025;-76
2022/09/08 19:27:34;;;;;;;3.28;0.85;;;;;;;;;;6176700;23;20027;-76
2022/09/08 19:30:02;;;;;;;2.00;0.98;;;;;;;;;;6177722;23;20411;-77
2022/09/08 19:32:36;;;;;;;2.08;1.02;;;;;;;;;;6177690;23;20025;-77
2022/09/08 19:35:33;;;;;;;1.85;0.90;;;;;;;;;;6176746;23;20031;-77
2022/09/08 19:38:09;;;;;;;7.57;0.90;;;;;;;;;;6176806;23;20474;-77
2022/09/08 19:40:43;;;;;;;2.95;0.93;;;;;;;;;;6176122;23;20063;-74
2022/09/08 19:43:10;;;;;;;3.95;1.77;;;;;;;;;;6176693;23;20027;-77
2022/09/08 19:45:37;;;;;;;1.17;0.90;;;;;;;;;;6177127;23;20024;-77
2022/09/08 19:48:11;;;;;;;1.45;0.98;;;;;;;;;;6176341;23;20462;-77
2022/09/08 19:50:54;;;;;;;2.03;1.05;;;;;;;;;;6174359;23;20017;-76